aviador You're here:

YSNF Decoded Metar

NORFOLK ISLAND in AUSTRALIA
Report Time2018-05-28 05:00:00
UTC Time2018-05-28 05:14:02
Flight Rules vfr VFR
Wind180° at 14 kt
W.Decomp.*RWY 11: 8.0 kt HW 11.5 kt RCW
RWY 22: 8.0 kt HW 11.5 kt LCW
W.Rank180° ranks 12
Current wind is above 180° avg. (9.5)
Visibility9999 m
Phenomena:N/A
Clouds:Few 029 Hf
Expected CloudBase > 2,800 ft AGL from Temp-Dew spread
CeilingNone
Temp18°C (ISA +4)
Dew Point11°C (64% RH)
AAT13.3°C
QNH1017 hPa
Density Alt837 ft
Elevation358 ft
Report Wrong Elevation
Raw Report
METAR YSNF 280500Z 18014KT 9999 FEW029 18/11 Q1017=

Extra information for YSNF:More info

Metar Taf Metar & Taf Last 4 Metars F.Rules Stats Wind Profile Meteogram Temp Stats Airport Information Weather charts Add Link Nearby VenuesMetar ALERT Operation Metar Decoded Social comments